Terminal Aerodrome Forecast
Issued by NWS Portland, ME

Home | Current Version | Previous Version | Text Only | Print | Product List | Glossary On
Versions: 1 2 3 4 5 6 7 8 9 10 11 12 13 14 15 16 17 18 19 20 21 22
490
FTUS41 KGYX 010913 AAA
TAFCON
TAF AMD
KCON 010913Z 0109/0206 VRB03KT P6SM BKN200
     FM011600 15005KT P6SM -SHRA OVC050
     FM011900 15005KT 6SM -SHRA BKN025
     FM020100 VRB03KT P6SM OVC015=

USA.gov is the U.S. government's official web portal to all federal, state and local government web resources and services.